Time;durP1;ratioP1;P1;durP2;ratioP2;P2;SDS_P1;SDS_P2;PMS_P1;PMS_P2;Temp;Humidity;BMP_temperature;BMP_pressure;BME280_temperature;BME280_humidity;BME280_pressure;Samples;Min_cycle;Max_cycle;Signal;HPM_P1;HPM_P2
2022/05/29 00:00:46;;;;;;;16.40;7.75;;;;;;;17.89;77.41;95086.38;5106909;28;20016;-85
2022/05/29 00:03:12;;;;;;;21.23;8.65;;;;;;;17.95;76.96;95105.50;5104836;28;20032;-83
2022/05/29 00:05:37;;;;;;;12.50;7.13;;;;;;;17.89;76.80;95102.66;5102613;28;20433;-86
2022/05/29 00:08:03;;;;;;;15.93;7.93;;;;;;;17.85;77.63;95027.41;5104521;28;20089;-85
2022/05/29 00:10:28;;;;;;;15.70;7.80;;;;;;;17.90;76.89;94995.00;5102993;28;20035;-84
2022/05/29 00:12:54;;;;;;;17.33;7.10;;;;;;;17.81;77.29;94993.69;5104888;28;20032;-86
2022/05/29 00:15:19;;;;;;;14.45;7.50;;;;;;;17.66;77.69;95001.22;5105419;28;20035;-85
2022/05/29 00:17:45;;;;;;;15.93;7.28;;;;;;;17.70;77.07;95006.16;5102522;28;20032;-85
2022/05/29 00:20:10;;;;;;;16.00;6.60;;;;;;;17.65;77.39;95004.16;5105601;28;20031;-85
2022/05/29 00:22:36;;;;;;;16.48;6.65;;;;;;;17.62;77.19;95013.56;5104163;28;20168;-85
2022/05/29 00:25:02;;;;;;;14.02;7.43;;;;;;;17.56;77.75;95025.34;5105609;28;20032;-84
2022/05/29 00:27:28;;;;;;;16.88;7.93;;;;;;;17.49;78.09;95014.59;5102451;28;20020;-84
2022/05/29 00:29:53;;;;;;;15.05;6.93;;;;;;;17.49;77.87;94994.81;5105122;28;20043;-85
2022/05/29 00:32:19;;;;;;;15.02;6.55;;;;;;;17.53;77.33;94988.69;5104208;28;20051;-86
2022/05/29 00:34:44;;;;;;;15.07;6.75;;;;;;;17.48;77.30;94993.13;5087545;28;20093;-85
2022/05/29 00:37:10;;;;;;;16.80;7.30;;;;;;;17.45;77.77;94983.59;5089379;28;20073;-86
2022/05/29 00:39:35;;;;;;;13.32;6.55;;;;;;;17.38;78.11;94982.84;5087460;28;20020;-85
2022/05/29 00:42:07;;;;;;;13.75;6.95;;;;;;;17.45;77.42;94972.75;5090383;28;20082;-85
2022/05/29 00:44:33;;;;;;;16.80;6.77;;;;;;;17.47;77.31;94964.38;5070686;28;20108;-84
2022/05/29 00:47:18;;;;;;;12.55;6.55;;;;;;;17.44;77.02;94962.16;5071955;28;20111;-84
2022/05/29 00:49:45;;;;;;;19.85;7.03;;;;;;;17.40;77.21;94927.38;5088227;28;20105;-86
2022/05/29 00:52:25;;;;;;;15.95;6.30;;;;;;;17.38;77.12;94905.09;5070707;28;20023;-86
2022/05/29 00:55:23;;;;;;;16.95;6.32;;;;;;;17.34;77.75;94901.19;5090156;28;20103;-85
2022/05/29 00:57:59;;;;;;;16.15;6.80;;;;;;;17.35;77.48;94924.53;5075214;28;20441;-85
2022/05/29 01:00:26;;;;;;;17.13;6.93;;;;;;;17.34;77.92;94971.66;5072161;28;20104;-85
2022/05/29 01:02:56;;;;;;;13.00;7.68;;;;;;;16.60;81.68;94973.44;5088225;28;20024;-85
2022/05/29 01:05:22;;;;;;;16.08;8.25;;;;;;;16.72;81.08;94923.94;5088422;28;20035;-84
2022/05/29 01:07:53;;;;;;;16.75;7.38;;;;;;;16.76;81.25;94914.28;5071579;28;20051;-87
2022/05/29 01:10:19;;;;;;;15.07;7.30;;;;;;;16.83;80.50;94928.56;5088037;28;20032;-85
2022/05/29 01:12:59;;;;;;;15.57;8.00;;;;;;;16.90;80.56;94931.19;5088877;28;20305;-84
2022/05/29 01:15:33;;;;;;;14.45;6.95;;;;;;;16.90;80.35;94934.72;5071966;28;20036;-87
2022/05/29 01:18:26;;;;;;;13.63;7.20;;;;;;;16.94;80.51;94956.78;5088922;28;20089;-86
2022/05/29 01:21:30;;;;;;;17.10;8.05;;;;;;;16.94;80.21;94918.84;5088852;28;20031;-88
2022/05/29 01:23:59;;;;;;;13.27;6.82;;;;;;;17.01;79.82;94888.94;5087645;28;20040;-85
2022/05/29 01:26:33;;;;;;;14.05;7.10;;;;;;;17.01;80.33;94940.41;5089509;28;20028;-86
2022/05/29 01:29:09;;;;;;;13.60;6.75;;;;;;;16.91;80.54;94935.56;5088594;28;20154;-87
2022/05/29 01:31:46;;;;;;;25.02;8.63;;;;;;;16.86;80.87;94944.34;5069706;28;20024;-84
2022/05/29 01:34:11;;;;;;;15.60;8.30;;;;;;;16.84;81.12;94943.78;5088795;28;20048;-86
2022/05/29 01:36:42;;;;;;;17.60;8.70;;;;;;;16.91;80.45;94941.78;5086908;28;20036;-85
2022/05/29 01:39:37;;;;;;;28.25;12.15;;;;;;;16.98;79.81;94944.41;5087526;28;20028;-85
2022/05/29 01:42:12;;;;;;;34.72;15.63;;;;;;;16.93;79.98;94939.69;5088767;28;20115;-85
2022/05/29 01:44:47;;;;;;;32.63;16.95;;;;;;;16.95;80.23;94930.50;5069798;28;20024;-87
2022/05/29 01:47:20;;;;;;;35.88;17.27;;;;;;;16.96;80.16;94935.69;5072690;28;20078;-86
2022/05/29 01:49:50;;;;;;;35.47;17.35;;;;;;;16.97;80.40;94936.50;5086161;28;20027;-85
2022/05/29 01:52:27;;;;;;;35.95;18.20;;;;;;;17.00;80.57;94938.75;5089183;28;20049;-87
2022/05/29 01:55:02;;;;;;;42.95;18.27;;;;;;;17.05;80.25;94937.03;5088233;28;20035;-85
2022/05/29 01:57:30;;;;;;;30.67;16.98;;;;;;;17.08;79.95;94933.06;5084840;28;20032;-85
2022/05/29 02:00:12;;;;;;;35.40;16.80;;;;;;;17.08;79.88;94934.91;5072554;28;20066;-85
2022/05/29 02:02:53;;;;;;;27.10;15.73;;;;;;;16.95;80.21;94934.03;5070671;28;20054;-86
2022/05/29 02:05:24;;;;;;;30.27;14.20;;;;;;;16.95;79.97;94928.63;5086760;28;20405;-86
2022/05/29 02:07:52;;;;;;;24.48;14.55;;;;;;;17.00;80.55;94909.81;5071166;28;20088;-86
2022/05/29 02:10:20;;;;;;;22.02;12.75;;;;;;;17.06;80.17;94891.78;5068898;28;20073;-88
2022/05/29 02:13:08;;;;;;;20.20;10.75;;;;;;;17.08;80.19;94895.13;5087461;28;20442;-86
2022/05/29 02:15:55;;;;;;;21.08;9.77;;;;;;;17.04;79.50;94896.59;5085093;28;20047;-86
2022/05/29 02:18:38;;;;;;;19.75;9.57;;;;;;;17.02;79.44;94898.72;5075364;28;20580;-86
2022/05/29 02:21:09;;;;;;;14.55;7.97;;;;;;;17.04;79.39;94893.91;5087842;28;20038;-86
2022/05/29 02:23:36;;;;;;;16.45;8.52;;;;;;;17.03;79.35;94892.25;5067796;28;20032;-85
2022/05/29 02:26:03;;;;;;;16.65;8.57;;;;;;;16.95;79.45;94893.41;5070446;28;20024;-85
2022/05/29 02:28:35;;;;;;;17.92;7.80;;;;;;;16.95;79.50;94895.28;5067887;28;20031;-86
2022/05/29 02:31:03;;;;;;;15.27;8.43;;;;;;;16.97;79.23;94895.88;5070039;28;20032;-86
2022/05/29 02:33:36;;;;;;;18.20;8.02;;;;;;;16.97;79.43;94895.88;5086146;28;20052;-86
2022/05/29 02:36:22;;;;;;;14.18;7.97;;;;;;;16.96;78.80;94886.94;5068319;28;20494;-85
2022/05/29 02:39:08;;;;;;;17.30;7.93;;;;;;;16.87;78.75;94885.59;5072989;28;20501;-86
2022/05/29 02:42:03;;;;;;;15.63;7.00;;;;;;;16.85;79.25;94883.13;5085773;28;20321;-89
2022/05/29 02:44:56;;;;;;;12.30;7.05;;;;;;;16.92;79.28;94883.88;5085551;28;20024;-85
2022/05/29 02:47:34;;;;;;;;;;;;;;;16.83;79.11;94874.41;5087162;28;20024;-85
2022/05/29 02:50:09;;;;;;;11.60;6.05;;;;;;;16.80;79.36;94864.88;5083839;28;20386;-85
2022/05/29 02:52:34;;;;;;;15.77;7.10;;;;;;;16.85;78.87;94861.47;5087473;28;20087;-85
2022/05/29 02:55:00;;;;;;;12.75;5.68;;;;;;;16.84;78.43;94859.81;5085573;28;20032;-87
2022/05/29 02:57:25;;;;;;;10.25;5.90;;;;;;;16.79;78.72;94852.41;5050967;28;20024;-85
2022/05/29 02:59:53;;;;;;;13.02;6.40;;;;;;;16.80;78.57;94842.38;5088408;28;20069;-87
2022/05/29 03:02:44;;;;;;;13.52;5.47;;;;;;;16.79;78.63;94829.91;5084405;28;20024;-86
2022/05/29 03:05:33;;;;;;;21.00;6.63;;;;;;;16.81;77.90;94838.63;5086542;28;20027;-85
2022/05/29 03:08:01;;;;;;;16.10;6.13;;;;;;;16.74;78.31;94843.28;5067959;28;20032;-86
2022/05/29 03:10:41;;;;;;;11.38;5.97;;;;;;;16.75;77.80;94840.34;5085870;28;20024;-85
2022/05/29 03:13:09;;;;;;;12.32;6.13;;;;;;;16.76;78.06;94827.66;5069803;28;20398;-86
2022/05/29 03:15:46;;;;;;;9.55;5.60;;;;;;;16.76;77.96;94830.34;5083334;28;20032;-85
2022/05/29 03:18:24;;;;;;;16.02;6.00;;;;;;;16.77;77.79;94823.88;5087455;28;20052;-88
2022/05/29 03:21:00;;;;;;;11.18;5.20;;;;;;;16.78;77.47;94822.84;5085416;28;20043;-85
2022/05/29 03:23:49;;;;;;;12.65;5.18;;;;;;;16.81;76.62;94822.38;5084821;28;20042;-85
2022/05/29 03:26:25;;;;;;;11.25;5.53;;;;;;;16.76;76.69;94814.13;5069897;28;20578;-85
2022/05/29 03:28:55;;;;;;;11.77;4.80;;;;;;;16.71;76.74;94816.69;5067393;28;20035;-86
2022/05/29 03:31:22;;;;;;;8.50;3.67;;;;;;;16.74;76.12;94818.94;5069431;28;20043;-85
2022/05/29 03:33:47;;;;;;;7.68;4.32;;;;;;;16.76;75.21;94817.66;5066683;28;20048;-86
2022/05/29 03:36:15;;;;;;;11.32;4.97;;;;;;;16.74;75.46;94810.81;5068023;28;20598;-85
2022/05/29 03:38:40;;;;;;;10.15;4.75;;;;;;;16.71;75.84;94808.56;5086330;28;20066;-85
2022/05/29 03:41:13;;;;;;;12.50;4.78;;;;;;;16.71;75.86;94811.28;5085113;28;20059;-86
2022/05/29 03:43:40;;;;;;;9.38;4.30;;;;;;;16.67;76.11;94817.16;5069120;28;20439;-85
2022/05/29 03:46:06;;;;;;;11.93;5.55;;;;;;;16.75;75.66;94807.88;5084111;28;20036;-84
2022/05/29 03:48:32;;;;;;;11.05;4.63;;;;;;;16.68;75.95;94807.97;5087251;28;20035;-86
2022/05/29 03:51:05;;;;;;;13.15;4.90;;;;;;;16.71;75.94;94811.28;5084888;28;20028;-85
2022/05/29 03:53:31;;;;;;;13.43;4.43;;;;;;;16.60;76.59;94804.78;5084828;28;20032;-86
2022/05/29 03:55:57;;;;;;;10.88;4.88;;;;;;;16.63;76.40;94804.31;5086445;28;20443;-87
2022/05/29 03:58:23;;;;;;;11.63;4.10;;;;;;;16.73;75.87;94806.44;5066636;28;20524;-86
2022/05/29 04:00:48;;;;;;;13.80;4.57;;;;;;;16.73;76.02;94809.16;5068504;28;20043;-85
2022/05/29 04:03:14;;;;;;;11.50;4.80;;;;;;;16.72;75.86;94805.63;5082541;28;20032;-85
2022/05/29 04:05:39;;;;;;;12.27;4.68;;;;;;;16.70;76.27;94804.22;5085936;28;20035;-85
2022/05/29 04:13:35;;;;;;;9.73;4.95;;;;;;;16.77;75.16;94808.47;5089309;28;20416;-86
2022/05/29 04:16:01;;;;;;;9.35;4.55;;;;;;;16.75;75.14;94805.16;5086086;28;20036;-85
2022/05/29 04:18:26;;;;;;;10.45;4.40;;;;;;;16.86;74.85;94813.56;5072206;28;20543;-84
2022/05/29 04:20:52;;;;;;;11.70;5.03;;;;;;;16.91;74.99;94821.81;5085864;28;20476;-85
2022/05/29 04:23:18;;;;;;;10.55;4.68;;;;;;;16.74;75.38;94817.06;5088957;28;20456;-86
2022/05/29 04:25:44;;;;;;;11.65;4.43;;;;;;;16.84;74.67;94808.38;5086886;28;20031;-86
2022/05/29 04:28:09;;;;;;;12.27;4.60;;;;;;;16.84;75.08;94804.81;5089349;28;20050;-87
2022/05/29 04:30:35;;;;;;;7.40;3.88;;;;;;;16.83;73.96;94806.69;5088459;28;20059;-86
2022/05/29 04:33:00;;;;;;;10.90;4.20;;;;;;;16.93;74.23;94808.84;5052334;28;20044;-86
2022/05/29 04:35:39;;;;;;;10.68;4.28;;;;;;;17.05;73.72;94823.25;5089937;28;20509;-87
2022/05/29 04:38:05;;;;;;;9.77;4.50;;;;;;;17.18;73.48;94827.63;5086070;28;20028;-87
2022/05/29 04:40:31;;;;;;;9.23;4.20;;;;;;;17.23;73.22;94818.84;5071709;28;20102;-87
2022/05/29 04:42:56;;;;;;;11.85;4.20;;;;;;;17.36;73.16;94823.16;5069763;28;20587;-86
2022/05/29 04:45:21;;;;;;;12.38;4.93;;;;;;;17.54;72.79;94824.94;5087880;28;20032;-86
2022/05/29 04:47:47;;;;;;;13.23;4.70;;;;;;;17.69;72.47;94822.81;5092188;28;20023;-87
2022/05/29 04:50:12;;;;;;;10.68;4.30;;;;;;;17.81;72.11;94818.22;5087811;28;20023;-85
2022/05/29 04:52:38;;;;;;;8.88;4.55;;;;;;;17.86;72.44;94822.94;5090057;28;20471;-86
2022/05/29 04:55:04;;;;;;;10.23;4.80;;;;;;;18.02;72.67;94818.66;5068778;28;20115;-89
2022/05/29 04:57:29;;;;;;;10.68;4.38;;;;;;;18.12;72.28;94815.38;5071906;28;20133;-86
2022/05/29 04:59:55;;;;;;;11.38;4.63;;;;;;;17.93;72.37;94826.34;5085924;28;20126;-86
2022/05/29 05:02:20;;;;;;;13.63;4.10;;;;;;;18.00;71.76;94823.50;5088724;28;20111;-87
2022/05/29 05:04:46;;;;;;;10.02;4.28;;;;;;;17.92;71.99;94820.09;5086952;28;20012;-86
2022/05/29 05:07:11;;;;;;;10.50;4.60;;;;;;;18.03;71.80;94810.28;5088493;28;20016;-86
2022/05/29 05:09:36;;;;;;;9.48;4.40;;;;;;;18.07;71.98;94810.59;5089342;28;20057;-87
2022/05/29 05:12:02;;;;;;;15.52;4.93;;;;;;;18.37;71.76;94798.75;5091198;28;20032;-87
2022/05/29 05:14:28;;;;;;;9.30;4.10;;;;;;;18.36;71.24;94802.53;5097474;28;20099;-85
2022/05/29 05:16:53;;;;;;;12.98;4.40;;;;;;;18.30;71.17;94798.06;5052768;28;20512;-84
2022/05/29 05:19:19;;;;;;;12.35;4.50;;;;;;;18.44;70.71;94798.63;5088183;28;20066;-87
2022/05/29 05:21:44;;;;;;;9.82;4.00;;;;;;;18.45;71.73;94805.69;5085952;28;20024;-86
2022/05/29 05:24:09;;;;;;;9.82;3.92;;;;;;;18.59;70.11;94805.38;5088348;28;20020;-87
2022/05/29 05:26:35;;;;;;;11.88;3.97;;;;;;;18.68;69.66;94811.25;5070039;28;20523;-86
2022/05/29 05:29:01;;;;;;;9.88;3.95;;;;;;;18.68;67.73;94803.09;5069459;28;20027;-88
2022/05/29 05:31:26;;;;;;;8.27;3.58;;;;;;;18.75;67.69;94798.34;5087609;28;20075;-87
2022/05/29 05:33:51;;;;;;;8.82;3.65;;;;;;;18.76;68.28;94798.13;5086182;28;20036;-87
2022/05/29 05:36:17;;;;;;;15.82;4.25;;;;;;;18.76;68.17;94800.00;5088769;28;20039;-85
2022/05/29 05:38:43;;;;;;;9.40;4.18;;;;;;;18.77;68.98;94790.78;5086408;28;20095;-87
2022/05/29 05:41:09;;;;;;;10.50;3.97;;;;;;;18.79;67.46;94791.34;5087423;28;20028;-85
2022/05/29 05:43:35;;;;;;;12.50;5.00;;;;;;;18.95;67.36;94797.88;5087530;28;20024;-88
2022/05/29 05:46:00;;;;;;;9.05;3.67;;;;;;;19.04;66.04;94792.84;5088317;28;20429;-87
2022/05/29 05:48:29;;;;;;;10.00;4.00;;;;;;;19.45;64.57;94802.75;5088014;28;20407;-88
2022/05/29 05:50:56;;;;;;;9.98;3.70;;;;;;;19.47;64.70;94797.91;5085730;28;20024;-88
2022/05/29 05:53:22;;;;;;;15.70;4.35;;;;;;;19.42;64.34;94792.38;5070948;28;20036;-87
2022/05/29 05:55:47;;;;;;;12.65;3.80;;;;;;;19.42;63.90;94789.66;5084651;28;20051;-87
2022/05/29 05:58:13;;;;;;;9.40;3.30;;;;;;;19.44;65.08;94795.69;5087647;28;20024;-87
2022/05/29 06:00:38;;;;;;;11.57;3.92;;;;;;;19.60;63.63;94783.94;5069918;28;20040;-86
2022/05/29 06:03:04;;;;;;;8.13;2.80;;;;;;;19.56;63.42;94780.09;5090574;28;20028;-86
2022/05/29 06:05:29;;;;;;;13.95;3.20;;;;;;;19.57;62.64;94787.16;5087561;28;20032;-88
2022/05/29 06:07:55;;;;;;;9.35;3.88;;;;;;;19.59;62.40;94789.63;5087139;28;20035;-85
2022/05/29 06:10:20;;;;;;;8.52;3.15;;;;;;;19.71;62.75;94794.97;5087574;28;20020;-88
2022/05/29 06:12:46;;;;;;;6.35;2.90;;;;;;;20.15;61.30;94799.66;5085361;28;20024;-88
2022/05/29 06:15:11;;;;;;;8.77;2.65;;;;;;;20.51;60.41;94793.78;5088093;28;20027;-86
2022/05/29 06:17:37;;;;;;;8.25;3.25;;;;;;;20.65;59.82;94790.66;5085212;28;20113;-86
2022/05/29 06:20:03;;;;;;;8.68;3.20;;;;;;;20.79;61.20;94789.19;5087898;28;20020;-87
2022/05/29 06:22:28;;;;;;;6.30;2.40;;;;;;;21.11;59.23;94773.94;5085569;28;20027;-87
2022/05/29 06:24:54;;;;;;;7.88;3.45;;;;;;;21.22;57.95;94769.38;5086335;28;20279;-85
2022/05/29 06:27:19;;;;;;;12.35;2.97;;;;;;;21.43;57.85;94774.97;5085733;28;20027;-85
2022/05/29 06:29:45;;;;;;;7.25;2.33;;;;;;;21.63;56.17;94773.47;5086144;28;20522;-85
2022/05/29 06:32:12;;;;;;;9.77;2.47;;;;;;;21.76;55.68;94770.28;5086867;28;20023;-87
2022/05/29 06:34:38;;;;;;;9.68;2.65;;;;;;;21.75;56.08;94760.44;5083028;28;20067;-89
2022/05/29 06:37:06;;;;;;;9.23;2.55;;;;;;;21.96;55.50;94750.47;5086336;28;20568;-88
2022/05/29 06:39:33;;;;;;;9.00;2.60;;;;;;;22.08;56.02;94755.72;5066646;28;20038;-87
2022/05/29 06:41:59;;;;;;;9.90;2.80;;;;;;;22.22;55.67;94747.03;5069225;28;20460;-85
2022/05/29 06:44:24;;;;;;;5.55;2.53;;;;;;;22.39;53.84;94749.56;5085805;28;20567;-88
2022/05/29 06:46:50;;;;;;;5.13;2.20;;;;;;;22.48;53.74;94752.56;5068428;28;20429;-88
2022/05/29 06:49:15;;;;;;;11.60;2.88;;;;;;;22.61;53.31;94756.72;5085659;28;20028;-86
2022/05/29 06:51:41;;;;;;;4.70;2.35;;;;;;;22.65;52.66;94765.22;5084375;28;20028;-86
2022/05/29 06:54:06;;;;;;;7.80;2.70;;;;;;;22.57;52.45;94753.66;5088068;28;20047;-88
2022/05/29 06:56:31;;;;;;;8.02;2.53;;;;;;;22.60;52.68;94747.69;5084427;28;20482;-86
2022/05/29 06:58:58;;;;;;;8.63;2.72;;;;;;;22.76;53.14;94728.59;5085949;28;20028;-85
2022/05/29 07:07:04;;;;;;;10.70;2.85;;;;;;;22.94;50.96;94734.63;5072308;28;20043;-87
2022/05/29 07:09:36;;;;;;;6.55;2.45;;;;;;;23.02;50.68;94738.72;5066026;28;20027;-86
2022/05/29 07:12:30;;;;;;;6.75;2.17;;;;;;;23.16;50.53;94742.53;5085895;28;20031;-85
2022/05/29 07:15:02;;;;;;;8.75;2.50;;;;;;;23.29;50.64;94735.69;5086047;28;20036;-88
2022/05/29 07:17:27;;;;;;;8.30;2.30;;;;;;;23.31;49.41;94730.75;5083880;28;20039;-90
2022/05/29 07:19:53;;;;;;;9.25;2.20;;;;;;;23.40;50.50;94717.38;5070559;28;20032;-88
2022/05/29 07:22:19;;;;;;;6.50;1.95;;;;;;;23.32;49.03;94737.88;5085179;28;20020;-86
2022/05/29 07:24:44;;;;;;;6.85;2.50;;;;;;;23.23;49.26;94731.31;5087189;28;20078;-90
2022/05/29 07:27:10;;;;;;;7.65;2.53;;;;;;;22.86;51.04;94727.75;5082771;28;20066;-87
2022/05/29 07:29:36;;;;;;;7.70;2.15;;;;;;;22.91;51.96;94732.44;5068015;28;20043;-86
2022/05/29 07:32:01;;;;;;;10.98;2.10;;;;;;;23.08;50.34;94735.72;5083578;28;20027;-87
2022/05/29 07:34:27;;;;;;;10.25;2.72;;;;;;;23.06;52.29;94739.81;5083871;28;20502;-86
2022/05/29 07:36:53;;;;;;;4.68;1.58;;;;;;;23.08;51.72;94730.25;5084584;28;20032;-87
2022/05/29 07:39:19;;;;;;;14.98;3.22;;;;;;;23.31;50.63;94730.75;5083015;28;20030;-87
2022/05/29 07:44:29;;;;;;;8.25;1.95;;;;;;;23.49;49.07;94736.78;5085859;28;20560;-85
2022/05/29 07:46:54;;;;;;;7.57;1.90;;;;;;;23.37;48.03;94725.28;5088885;28;20020;-89
2022/05/29 07:49:21;;;;;;;11.30;2.22;;;;;;;23.31;49.36;94725.28;5088096;28;20024;-87
2022/05/29 07:51:47;;;;;;;6.05;2.10;;;;;;;23.44;49.71;94732.13;5087836;28;20020;-85
2022/05/29 07:54:12;;;;;;;7.20;2.30;;;;;;;23.54;48.45;94731.28;5090575;28;20031;-87
2022/05/29 07:56:38;;;;;;;6.88;2.17;;;;;;;23.68;48.54;94731.53;5087230;28;20563;-85
2022/05/29 07:59:03;;;;;;;10.48;2.30;;;;;;;23.72;50.12;94720.84;5090425;28;20129;-86
2022/05/29 08:01:29;;;;;;;7.93;2.40;;;;;;;23.59;49.20;94722.25;5086554;28;20277;-87
2022/05/29 08:03:54;;;;;;;7.82;2.45;;;;;;;23.49;50.14;94714.09;5090164;28;20040;-86
2022/05/29 08:06:20;;;;;;;9.23;2.58;;;;;;;23.58;50.15;94715.16;5088070;28;20024;-86
2022/05/29 08:08:45;;;;;;;7.30;2.05;;;;;;;23.52;50.31;94711.59;5089364;28;20020;-86
2022/05/29 08:11:11;;;;;;;9.18;2.30;;;;;;;23.63;50.52;94708.84;5089595;28;20035;-85
2022/05/29 08:13:36;;;;;;;14.95;2.42;;;;;;;23.80;49.78;94708.50;5089468;28;20020;-87
2022/05/29 08:16:05;;;;;;;9.18;2.10;;;;;;;23.83;48.80;94697.81;5089849;28;20478;-86
2022/05/29 08:18:31;;;;;;;10.35;2.35;;;;;;;23.83;50.18;94697.81;5087915;28;20074;-85
2022/05/29 08:20:57;;;;;;;7.20;2.05;;;;;;;23.94;49.03;94690.38;5071508;28;20028;-88
2022/05/29 08:23:22;;;;;;;10.85;2.65;;;;;;;24.08;49.66;94690.56;5087464;28;20386;-86
2022/05/29 08:31:16;;;;;;;11.45;2.47;;;;;;;24.18;48.84;94672.50;5086128;28;20085;-86
2022/05/29 08:33:43;;;;;;;12.75;2.40;;;;;;;23.99;47.54;94670.34;5089946;28;20041;-90
2022/05/29 08:36:10;;;;;;;8.88;2.17;;;;;;;23.95;46.95;94681.06;5086572;28;20036;-84
2022/05/29 08:38:40;;;;;;;9.90;2.33;;;;;;;23.95;46.12;94675.59;5088238;28;20028;-87
2022/05/29 08:41:07;;;;;;;10.88;2.88;;;;;;;23.94;46.70;94659.47;5086261;28;20031;-88
2022/05/29 08:43:34;;;;;;;11.02;3.10;;;;;;;24.05;47.28;94660.22;5088877;28;20020;-86
2022/05/29 08:46:19;;;;;;;7.53;2.25;;;;;;;24.12;46.53;94657.97;5087458;28;20025;-85
2022/05/29 08:48:44;;;;;;;7.75;1.92;;;;;;;24.25;46.11;94651.06;5085914;28;20020;-87
2022/05/29 08:51:17;;;;;;;11.55;2.50;;;;;;;24.14;44.72;94668.63;5088093;28;20020;-86
2022/05/29 08:53:49;;;;;;;10.30;2.60;;;;;;;24.20;46.61;94659.31;5086947;28;20017;-90
2022/05/29 08:56:20;;;;;;;10.57;2.40;;;;;;;24.32;45.82;94657.06;5088905;28;20036;-89
2022/05/29 08:59:04;;;;;;;10.43;2.47;;;;;;;24.37;46.40;94650.75;5071336;28;20031;-89
2022/05/29 09:01:58;;;;;;;8.75;2.28;;;;;;;24.47;47.42;94655.34;5087403;28;20606;-90
2022/05/29 09:04:33;;;;;;;7.47;2.63;;;;;;;24.51;46.22;94656.38;5090509;28;20030;-87
2022/05/29 09:06:59;;;;;;;13.05;2.60;;;;;;;24.65;46.08;94642.03;5094307;28;20024;-88
2022/05/29 09:09:51;;;;;;;11.40;2.55;;;;;;;24.47;45.32;94632.59;5072118;28;20368;-88
2022/05/29 09:12:47;;;;;;;12.00;2.92;;;;;;;24.41;44.72;94653.72;5070728;28;20105;-86
2022/05/29 09:15:32;;;;;;;7.82;2.20;;;;;;;24.46;44.70;94636.44;5072131;28;20036;-88
2022/05/29 09:18:00;;;;;;;9.57;2.83;;;;;;;24.52;43.32;94641.56;5087144;28;20028;-88
2022/05/29 09:20:34;;;;;;;9.38;2.80;;;;;;;24.56;43.27;94620.72;5086140;28;20143;-87
2022/05/29 09:23:01;;;;;;;7.57;2.22;;;;;;;24.60;43.32;94614.66;5085418;28;20043;-87
2022/05/29 09:25:31;;;;;;;8.95;2.63;;;;;;;24.68;42.06;94627.75;5087177;28;20035;-86
2022/05/29 09:28:05;;;;;;;8.15;2.42;;;;;;;24.64;42.72;94624.78;5068142;28;20030;-86
2022/05/29 09:30:30;;;;;;;9.50;2.72;;;;;;;24.76;42.49;94627.13;5087364;28;20066;-87
2022/05/29 09:33:02;;;;;;;11.15;2.50;;;;;;;24.69;42.24;94624.75;5085143;28;20079;-86
2022/05/29 09:35:44;;;;;;;10.80;2.60;;;;;;;24.85;43.25;94621.03;5070419;28;20138;-86
2022/05/29 09:38:31;;;;;;;9.52;2.72;;;;;;;24.81;43.94;94627.09;5070663;28;20024;-89
2022/05/29 09:41:02;;;;;;;11.85;2.80;;;;;;;24.81;42.74;94618.84;5085822;28;20097;-88
2022/05/29 09:43:28;;;;;;;15.45;2.90;;;;;;;24.82;43.31;94622.44;5071871;28;20035;-87
2022/05/29 09:45:54;;;;;;;9.50;2.80;;;;;;;24.80;42.31;94625.47;5068654;28;20023;-87
2022/05/29 09:51:35;;;;;;;10.07;3.05;;;;;;;24.74;42.60;94601.94;5088305;28;20119;-87
2022/05/29 09:54:02;;;;;;;7.95;3.13;;;;;;;24.77;42.98;94601.34;5086142;28;20429;-87
2022/05/29 09:56:30;;;;;;;10.18;3.08;;;;;;;24.62;43.47;94596.03;5087141;28;20516;-87
2022/05/29 09:58:59;;;;;;;10.73;2.60;;;;;;;24.63;43.74;94593.00;5068197;28;20040;-88
2022/05/29 10:01:29;;;;;;;10.20;3.22;;;;;;;24.66;45.18;94588.84;5086433;28;20024;-88
2022/05/29 10:03:57;;;;;;;11.90;3.75;;;;;;;24.63;44.16;94584.78;5087340;28;20486;-87
2022/05/29 10:06:41;;;;;;;7.95;3.10;;;;;;;24.58;44.83;94595.78;5083632;28;20264;-88
2022/05/29 10:09:20;;;;;;;11.57;3.20;;;;;;;24.60;45.18;94568.06;5070221;28;20108;-86
2022/05/29 10:11:48;;;;;;;10.23;3.47;;;;;;;24.67;45.15;94565.81;5085625;28;20039;-89
2022/05/29 10:14:40;;;;;;;11.35;3.17;;;;;;;24.69;44.31;94563.59;5069943;28;20024;-89
2022/05/29 10:17:16;;;;;;;9.98;3.50;;;;;;;24.74;45.47;94538.88;5087611;28;20044;-89
2022/05/29 10:19:45;;;;;;;15.32;3.40;;;;;;;24.74;44.28;94552.59;5084494;28;20020;-89
2022/05/29 10:22:13;;;;;;;13.82;3.10;;;;;;;24.76;43.84;94535.84;5087732;28;20109;-88
2022/05/29 10:24:40;;;;;;;14.45;3.45;;;;;;;24.65;43.98;94555.13;5085343;28;20035;-86
2022/05/29 10:27:11;;;;;;;11.63;3.85;;;;;;;24.52;43.16;94547.59;5087537;28;20027;-88
2022/05/29 10:29:37;;;;;;;9.60;2.60;;;;;;;24.44;43.64;94563.53;5085274;28;20493;-87
2022/05/29 10:32:09;;;;;;;15.43;3.92;;;;;;;24.47;43.35;94548.47;5089259;28;20035;-86
2022/05/29 10:34:38;;;;;;;16.17;4.13;;;;;;;24.51;44.94;94548.69;5078109;28;20449;-87
2022/05/29 10:37:23;;;;;;;11.55;3.35;;;;;;;24.43;44.56;94541.91;5084219;28;20075;-88
2022/05/29 10:39:48;;;;;;;13.23;3.38;;;;;;;24.37;45.03;94554.00;5088219;28;20515;-86
2022/05/29 10:42:15;;;;;;;8.77;3.28;;;;;;;24.30;45.00;94555.16;5084475;28;20028;-88
2022/05/29 10:44:43;;;;;;;10.60;3.25;;;;;;;24.13;45.88;94560.19;5076390;28;20024;-87
2022/05/29 10:47:15;;;;;;;14.25;3.65;;;;;;;24.03;45.68;94563.81;5093080;28;20020;-88
2022/05/29 10:50:14;;;;;;;9.82;3.20;;;;;;;23.97;45.88;94573.19;5085585;28;20482;-87
2022/05/29 10:53:16;;;;;;;13.80;3.30;;;;;;;24.01;46.11;94569.59;5095394;28;20036;-87
2022/05/29 10:55:54;;;;;;;8.07;3.00;;;;;;;23.91;46.83;94547.72;5073360;28;20040;-88
2022/05/29 10:58:30;;;;;;;12.25;3.17;;;;;;;23.98;47.30;94539.19;5070192;28;20129;-88
2022/05/29 11:01:04;;;;;;;10.88;3.20;;;;;;;23.97;46.94;94532.94;5085875;28;20436;-87
2022/05/29 11:03:48;;;;;;;11.60;3.72;;;;;;;23.83;47.55;94547.25;5085067;28;20024;-87
2022/05/29 11:06:33;;;;;;;12.13;3.17;;;;;;;23.78;46.95;94539.06;5087119;28;20028;-87
2022/05/29 11:09:06;;;;;;;10.38;3.83;;;;;;;23.70;46.91;94529.53;5085520;28;20024;-86
2022/05/29 11:11:55;;;;;;;9.55;3.40;;;;;;;23.64;46.56;94527.09;5083702;28;20027;-88
2022/05/29 11:14:41;;;;;;;14.77;3.72;;;;;;;23.66;46.92;94516.69;5086098;28;20028;-88
2022/05/29 11:17:22;;;;;;;15.43;3.25;;;;;;;23.74;46.87;94524.31;5085628;28;20478;-85
2022/05/29 11:20:13;;;;;;;8.85;3.08;;;;;;;23.76;46.90;94524.03;5083960;28;20031;-86
2022/05/29 11:22:51;;;;;;;13.98;3.45;;;;;;;23.83;46.92;94505.34;5087134;28;20421;-86
2022/05/29 11:25:16;;;;;;;8.77;3.50;;;;;;;24.04;46.95;94499.72;5068227;28;20467;-88
2022/05/29 11:28:07;;;;;;;13.75;3.45;;;;;;;24.17;46.92;94484.59;5086846;28;20020;-88
2022/05/29 11:30:51;;;;;;;10.63;3.10;;;;;;;24.41;47.02;94478.34;5086653;28;20440;-88
2022/05/29 11:33:47;;;;;;;11.10;3.30;;;;;;;24.62;46.63;94454.28;5084687;28;20410;-86
2022/05/29 11:36:18;;;;;;;9.95;3.15;;;;;;;24.83;46.55;94456.00;5086910;28;20624;-87
2022/05/29 11:39:05;;;;;;;12.65;3.47;;;;;;;25.10;45.03;94443.63;5084187;28;20514;-88
2022/05/29 11:41:51;;;;;;;15.63;4.10;;;;;;;25.15;47.09;94441.63;5085117;28;20034;-86
2022/05/29 11:44:18;;;;;;;10.95;3.55;;;;;;;25.23;45.42;94429.16;5070166;28;20025;-88
2022/05/29 11:53:28;;;;;;;9.52;3.38;;;;;;;25.68;43.83;94417.06;5063545;28;20027;-87
2022/05/29 11:55:55;;;;;;;9.45;3.55;;;;;;;25.74;43.90;94398.56;5065403;28;20122;-85
2022/05/29 11:58:24;;;;;;;11.25;3.45;;;;;;;25.60;44.99;94396.53;5067647;28;20043;-86
2022/05/29 12:00:54;;;;;;;10.25;4.45;;;;;;;25.89;44.49;94397.50;5068292;28;20457;-87
2022/05/29 12:03:26;;;;;;;12.27;4.88;;;;;;;25.53;43.90;94391.44;5084176;28;20031;-87
2022/05/29 12:06:13;;;;;;;10.15;3.72;;;;;;;25.40;44.52;94400.41;5086438;28;20035;-86
2022/05/29 12:08:46;;;;;;;13.93;4.10;;;;;;;25.25;44.33;94391.28;5068878;28;20032;-86
2022/05/29 12:11:30;;;;;;;11.85;4.32;;;;;;;25.24;44.65;94403.38;5085693;28;20039;-87
2022/05/29 12:14:24;;;;;;;11.52;4.10;;;;;;;25.05;45.67;94384.19;5085827;28;20527;-87